createdAt,value
2023-03-26T00:00:03.467Z,7.3
2023-03-26T00:02:02.536Z,11.3
2023-03-26T00:04:05.216Z,5.9
2023-03-26T00:06:06.926Z,7.7
2023-03-26T00:08:02.685Z,7.8
2023-03-26T00:10:03.334Z,6.9
2023-03-26T00:12:02.698Z,7.7
2023-03-26T00:14:03.160Z,8.4
2023-03-26T00:16:03.927Z,7.9
2023-03-26T00:18:04.029Z,8.2
2023-03-26T00:20:03.417Z,6.1
2023-03-26T00:22:03.211Z,5.8
2023-03-26T00:24:05.771Z,6.8
2023-03-26T00:26:03.524Z,6.8
2023-03-26T00:28:03.232Z,8.8
2023-03-26T00:30:04.257Z,6.8
2023-03-26T00:32:02.626Z,6.3
2023-03-26T00:34:04.917Z,7.2
2023-03-26T00:36:04.496Z,7.1
2023-03-26T00:38:02.489Z,8.3
2023-03-26T00:40:06.926Z,9.3
2023-03-26T00:42:06.344Z,8.2
2023-03-26T00:44:03.454Z,8.1
2023-03-26T00:46:03.686Z,9.1
2023-03-26T00:48:03.632Z,8.8
2023-03-26T00:50:03.717Z,6.4
2023-03-26T00:52:02.963Z,6.3
2023-03-26T00:54:03.613Z,7.9
2023-03-26T00:56:03.303Z,7.9
2023-03-26T00:58:02.441Z,7.2
2023-03-26T01:00:14.132Z,9.6
2023-03-26T01:02:03.862Z,9.3
2023-03-26T01:04:23.474Z,8.0
2023-03-26T01:06:07.592Z,8.3
2023-03-26T01:08:14.645Z,5.6
2023-03-26T01:10:02.515Z,6.2
2023-03-26T01:12:06.125Z,5.9
2023-03-26T01:14:06.667Z,7.9
2023-03-26T01:16:07.183Z,6.5
2023-03-26T01:18:04.571Z,11.0
2023-03-26T01:20:12.944Z,7.1
2023-03-26T01:22:04.530Z,8.1
2023-03-26T01:24:04.851Z,9.0
2023-03-26T01:26:09.756Z,7.7
2023-03-26T01:28:08.311Z,6.1
2023-03-26T01:30:10.457Z,8.2
2023-03-26T01:32:12.531Z,9.8
2023-03-26T01:34:11.874Z,8.2
2023-03-26T01:36:09.390Z,8.0
2023-03-26T01:38:11.216Z,8.3
2023-03-26T01:40:09.789Z,9.5
2023-03-26T01:42:08.675Z,7.5
2023-03-26T01:44:07.975Z,8.2
2023-03-26T01:46:05.729Z,7.7
2023-03-26T01:48:03.066Z,9.7
2023-03-26T01:50:02.816Z,9.0
2023-03-26T01:52:03.071Z,7.0
2023-03-26T01:54:06.402Z,6.6
2023-03-26T01:56:13.043Z,6.4
2023-03-26T01:58:11.798Z,6.9
2023-03-26T02:00:20.303Z,6.5
2023-03-26T02:02:09.829Z,9.0
2023-03-26T02:04:11.208Z,5.4
2023-03-26T02:06:10.736Z,7.4
2023-03-26T02:08:09.196Z,6.3
2023-03-26T02:10:11.088Z,8.2
2023-03-26T02:12:05.551Z,8.4
2023-03-26T02:14:04.646Z,6.5
2023-03-26T02:16:05.165Z,5.1
2023-03-26T02:18:03.563Z,6.4
2023-03-26T02:20:10.137Z,6.7
2023-03-26T02:22:02.600Z,6.2
2023-03-26T02:24:03.498Z,7.6
2023-03-26T02:26:03.218Z,5.3
2023-03-26T02:28:03.769Z,6.2
2023-03-26T02:30:02.610Z,7.5
2023-03-26T02:32:04.367Z,7.4
2023-03-26T02:34:03.542Z,8.1
2023-03-26T02:36:03.829Z,6.3
2023-03-26T02:38:02.470Z,6.8
2023-03-26T02:40:05.532Z,7.3
2023-03-26T02:42:03.312Z,8.3
2023-03-26T02:44:02.723Z,8.1
2023-03-26T02:46:02.747Z,6.0
2023-03-26T02:48:03.202Z,8.2
2023-03-26T02:50:04.012Z,10.8
2023-03-26T02:52:05.760Z,7.5
2023-03-26T02:54:03.806Z,15.8
2023-03-26T02:56:03.339Z,26.1
2023-03-26T02:58:02.970Z,24.2
2023-03-26T03:00:05.907Z,18.9
2023-03-26T03:02:02.968Z,18.6
2023-03-26T03:04:03.780Z,16.1
2023-03-26T03:06:02.748Z,23.5
2023-03-26T03:08:03.503Z,25.5
2023-03-26T03:10:02.713Z,28.7
2023-03-26T03:12:02.521Z,20.9
2023-03-26T03:14:04.211Z,24.5
2023-03-26T03:16:03.289Z,23.5
2023-03-26T03:18:03.510Z,13.1
2023-03-26T03:20:04.628Z,11.3
2023-03-26T03:22:02.482Z,9.1
2023-03-26T03:24:02.701Z,9.9
2023-03-26T03:26:02.718Z,9.6
2023-03-26T03:28:02.513Z,7.6
2023-03-26T03:30:03.906Z,7.4
2023-03-26T03:32:02.671Z,8.7
2023-03-26T03:34:02.485Z,8.5
2023-03-26T03:36:09.740Z,9.1
2023-03-26T03:38:02.648Z,9.9
2023-03-26T03:40:05.215Z,9.2
2023-03-26T03:42:03.475Z,8.1
2023-03-26T03:44:03.321Z,7.7
2023-03-26T03:46:03.578Z,8.0
2023-03-26T03:48:02.537Z,5.6
2023-03-26T03:50:03.146Z,10.3
2023-03-26T03:52:02.586Z,7.8
2023-03-26T03:54:03.144Z,7.3
2023-03-26T03:56:04.013Z,8.3
2023-03-26T03:58:03.146Z,8.3
2023-03-26T04:00:05.690Z,8.2
2023-03-26T04:02:02.735Z,9.5
2023-03-26T04:04:03.076Z,7.8
2023-03-26T04:06:06.295Z,10.8
2023-03-26T04:08:02.818Z,10.0
2023-03-26T04:10:03.294Z,9.2
2023-03-26T04:12:02.513Z,9.5
2023-03-26T04:14:02.737Z,7.5
2023-03-26T04:16:03.021Z,7.8
2023-03-26T04:18:03.362Z,8.6
2023-03-26T04:20:06.438Z,8.5
2023-03-26T04:22:02.525Z,7.5
2023-03-26T04:24:02.573Z,7.0
2023-03-26T04:26:06.763Z,7.4
2023-03-26T04:28:06.029Z,11.3
2023-03-26T04:30:04.933Z,8.2
2023-03-26T04:32:06.090Z,10.6
2023-03-26T04:34:07.135Z,9.5
2023-03-26T04:36:02.784Z,9.7
2023-03-26T04:38:05.997Z,12.7
2023-03-26T04:40:09.818Z,10.6
2023-03-26T04:42:02.513Z,9.3
2023-03-26T04:44:02.842Z,9.2
2023-03-26T04:46:02.880Z,10.1
2023-03-26T04:48:03.135Z,9.4
2023-03-26T04:50:04.378Z,9.9
2023-03-26T04:52:02.554Z,10.1
2023-03-26T04:54:03.666Z,11.3
2023-03-26T04:56:08.407Z,9.6
2023-03-26T04:58:04.816Z,11.4
2023-03-26T05:00:13.035Z,14.4
2023-03-26T05:02:04.395Z,10.5
2023-03-26T05:04:02.485Z,12.6
2023-03-26T05:06:02.630Z,11.5
2023-03-26T05:08:03.586Z,9.1
2023-03-26T05:10:03.099Z,9.9
2023-03-26T05:12:03.110Z,10.6
2023-03-26T05:14:02.757Z,11.0
2023-03-26T05:16:02.479Z,8.9
2023-03-26T05:18:03.064Z,8.9
2023-03-26T05:20:03.757Z,10.5
2023-03-26T05:22:03.064Z,6.6
2023-03-26T05:24:04.993Z,7.7
2023-03-26T05:26:02.522Z,7.5
2023-03-26T05:28:03.189Z,7.7
2023-03-26T05:30:03.910Z,7.7
2023-03-26T05:32:03.421Z,8.2
2023-03-26T05:34:03.479Z,8.9
2023-03-26T05:36:04.976Z,9.2
2023-03-26T05:38:02.712Z,7.2
2023-03-26T05:40:03.605Z,7.4
2023-03-26T05:42:03.174Z,8.7
2023-03-26T05:44:02.631Z,9.2
2023-03-26T05:46:03.050Z,9.4
2023-03-26T05:48:02.819Z,9.1
2023-03-26T05:50:02.740Z,11.1
2023-03-26T05:52:02.463Z,10.4
2023-03-26T05:54:02.485Z,10.4
2023-03-26T05:56:03.684Z,12.1
2023-03-26T05:58:03.227Z,11.2
2023-03-26T06:00:04.109Z,13.8
2023-03-26T06:02:03.140Z,16.0
2023-03-26T06:04:02.508Z,12.7
2023-03-26T06:06:03.538Z,14.4
2023-03-26T06:08:03.010Z,13.5
2023-03-26T06:10:02.950Z,12.9
2023-03-26T06:12:02.463Z,14.8
2023-03-26T06:14:03.033Z,13.3
2023-03-26T06:16:02.608Z,15.3
2023-03-26T06:18:02.566Z,14.3
2023-03-26T06:20:06.537Z,14.1
2023-03-26T06:22:02.733Z,15.8
2023-03-26T06:24:02.473Z,14.5
2023-03-26T06:26:02.713Z,14.4
2023-03-26T06:28:02.466Z,13.6
2023-03-26T06:30:02.649Z,14.6
2023-03-26T06:32:16.189Z,14.1
2023-03-26T06:34:02.833Z,15.4
2023-03-26T06:36:02.516Z,15.0
2023-03-26T06:38:02.770Z,14.4
2023-03-26T06:40:02.842Z,14.6
2023-03-26T06:42:02.491Z,14.0
2023-03-26T06:44:02.842Z,15.5
2023-03-26T06:46:03.398Z,13.9
2023-03-26T06:48:02.550Z,15.5
2023-03-26T06:50:02.751Z,15.1
2023-03-26T06:52:03.144Z,17.1
2023-03-26T06:54:02.625Z,15.2
2023-03-26T06:56:04.036Z,12.6
2023-03-26T06:58:03.097Z,15.6
2023-03-26T07:00:03.342Z,15.3
2023-03-26T07:02:02.430Z,14.4
2023-03-26T07:04:02.642Z,15.2
2023-03-26T07:06:02.627Z,15.3
2023-03-26T07:08:02.901Z,15.4
2023-03-26T07:10:02.632Z,15.5
2023-03-26T07:12:02.493Z,15.7
2023-03-26T07:14:02.952Z,15.9
2023-03-26T07:16:02.633Z,17.5
2023-03-26T07:18:02.568Z,14.9
2023-03-26T07:20:03.701Z,16.8
2023-03-26T07:22:02.801Z,14.6
2023-03-26T07:24:02.899Z,15.8
2023-03-26T07:26:18.529Z,16.0
2023-03-26T07:28:13.643Z,15.2
2023-03-26T07:30:09.526Z,15.0
2023-03-26T07:32:12.154Z,15.4
2023-03-26T07:34:15.669Z,16.6
2023-03-26T07:36:12.024Z,16.2
2023-03-26T07:38:19.217Z,15.6
2023-03-26T07:40:12.154Z,17.5
2023-03-26T07:42:09.697Z,16.9
2023-03-26T07:44:16.865Z,17.8
2023-03-26T07:46:02.950Z,15.9
2023-03-26T07:48:04.001Z,15.8
2023-03-26T07:50:03.516Z,16.6
2023-03-26T07:52:02.951Z,17.9
2023-03-26T07:54:03.694Z,15.9
2023-03-26T07:56:10.516Z,16.8
2023-03-26T07:58:21.503Z,16.0
2023-03-26T08:00:11.122Z,14.9
2023-03-26T08:02:21.790Z,16.2
2023-03-26T08:04:23.690Z,14.7
2023-03-26T08:06:14.087Z,15.1
2023-03-26T08:08:15.819Z,17.3
2023-03-26T08:10:12.297Z,16.5
2023-03-26T08:12:17.601Z,16.9
2023-03-26T08:14:13.700Z,15.5
2023-03-26T08:16:09.906Z,15.0
2023-03-26T08:18:17.595Z,16.5
2023-03-26T08:20:12.906Z,16.6
2023-03-26T08:22:11.643Z,17.0
2023-03-26T08:24:11.988Z,14.9
2023-03-26T08:26:12.217Z,15.3
2023-03-26T08:28:16.202Z,15.0
2023-03-26T08:30:10.922Z,15.0
2023-03-26T08:32:08.316Z,16.1
2023-03-26T08:34:03.261Z,15.2
2023-03-26T08:36:03.184Z,14.6
2023-03-26T08:38:02.824Z,15.5
2023-03-26T08:40:02.928Z,16.5
2023-03-26T08:42:21.540Z,15.2
2023-03-26T08:44:21.497Z,14.5
2023-03-26T08:46:21.485Z,15.3
2023-03-26T08:48:21.746Z,14.1
2023-03-26T08:50:21.511Z,15.3
2023-03-26T08:52:22.492Z,15.3
2023-03-26T08:54:21.554Z,15.3
2023-03-26T08:56:08.779Z,16.6
2023-03-26T08:58:21.461Z,15.2
2023-03-26T09:00:21.731Z,16.2
2023-03-26T09:02:17.334Z,15.4
2023-03-26T09:04:21.091Z,15.3
2023-03-26T09:06:20.049Z,14.2
2023-03-26T09:08:21.481Z,14.7
2023-03-26T09:10:21.488Z,13.5
2023-03-26T09:12:20.506Z,15.3
2023-03-26T09:14:20.365Z,14.7
2023-03-26T09:16:21.687Z,16.3
2023-03-26T09:18:21.509Z,15.3
2023-03-26T09:20:21.544Z,15.4
2023-03-26T09:22:17.521Z,15.1
2023-03-26T09:24:24.861Z,15.9
2023-03-26T09:26:14.051Z,15.9
2023-03-26T09:28:21.348Z,15.9
2023-03-26T09:30:21.521Z,15.7
2023-03-26T09:32:21.529Z,15.9
2023-03-26T09:34:20.664Z,15.5
2023-03-26T09:36:19.693Z,15.3
2023-03-26T09:38:11.231Z,15.3
2023-03-26T09:40:16.849Z,14.6
2023-03-26T09:42:13.842Z,14.3
2023-03-26T09:44:21.562Z,14.9
2023-03-26T09:46:16.002Z,15.8
2023-03-26T09:48:19.516Z,13.9
2023-03-26T09:50:15.673Z,14.5
2023-03-26T09:52:12.360Z,14.6
2023-03-26T09:54:19.032Z,17.4
2023-03-26T09:56:08.769Z,15.8
2023-03-26T09:58:18.008Z,15.7
2023-03-26T10:00:19.264Z,14.6
2023-03-26T10:02:18.612Z,16.2
2023-03-26T10:04:22.062Z,14.8
2023-03-26T10:06:20.672Z,14.3
2023-03-26T10:08:13.900Z,15.1
2023-03-26T10:10:12.156Z,15.9
2023-03-26T10:12:17.391Z,15.4
2023-03-26T10:14:13.754Z,16.1
2023-03-26T10:16:13.060Z,15.9
2023-03-26T10:18:28.278Z,16.5
2023-03-26T10:20:21.565Z,16.7
2023-03-26T10:22:12.933Z,16.2
2023-03-26T10:24:15.777Z,14.9
2023-03-26T10:26:15.959Z,14.3
2023-03-26T10:28:20.959Z,16.0
2023-03-26T10:30:21.496Z,15.6
2023-03-26T10:32:13.803Z,16.6
2023-03-26T10:34:28.004Z,14.6
2023-03-26T10:36:19.024Z,14.6
2023-03-26T10:38:13.564Z,14.7
2023-03-26T10:40:19.048Z,14.5
2023-03-26T10:42:16.198Z,15.3
2023-03-26T10:44:21.549Z,16.4
2023-03-26T10:46:21.882Z,16.5
2023-03-26T10:48:21.554Z,16.6
2023-03-26T10:50:23.662Z,13.7
2023-03-26T10:52:04.422Z,16.2
2023-03-26T10:54:12.569Z,15.7
2023-03-26T10:56:14.363Z,15.2
2023-03-26T10:58:11.031Z,15.9
2023-03-26T11:00:15.143Z,15.3
2023-03-26T11:02:29.706Z,15.9
2023-03-26T11:04:10.366Z,16.3
2023-03-26T11:06:11.726Z,14.7
2023-03-26T11:08:06.560Z,16.6
2023-03-26T11:10:08.851Z,16.8
2023-03-26T11:12:27.888Z,16.0
2023-03-26T11:14:10.974Z,14.6
2023-03-26T11:16:08.229Z,15.4
2023-03-26T11:18:13.701Z,14.7
2023-03-26T11:20:09.913Z,15.8
2023-03-26T11:22:12.429Z,15.6
2023-03-26T11:24:19.114Z,14.8
2023-03-26T11:26:10.264Z,15.1
2023-03-26T11:28:16.776Z,15.7
2023-03-26T11:30:16.389Z,14.7
2023-03-26T11:32:06.421Z,15.4
2023-03-26T11:34:09.185Z,15.8
2023-03-26T11:36:08.634Z,15.3
2023-03-26T11:38:06.274Z,16.7
2023-03-26T11:40:11.193Z,16.4
2023-03-26T11:42:07.692Z,16.1
2023-03-26T11:44:15.899Z,17.2
2023-03-26T11:46:04.509Z,15.1
2023-03-26T11:48:08.724Z,16.7
2023-03-26T11:50:06.536Z,16.5
2023-03-26T11:52:03.542Z,15.9
2023-03-26T11:54:04.848Z,15.9
2023-03-26T11:56:04.923Z,16.4
2023-03-26T11:58:05.726Z,14.9
2023-03-26T12:00:12.185Z,16.7
2023-03-26T12:02:17.977Z,16.0
2023-03-26T12:04:06.638Z,16.1
2023-03-26T12:06:03.227Z,16.8
2023-03-26T12:08:13.188Z,16.3
2023-03-26T12:10:18.101Z,14.9
2023-03-26T12:12:05.900Z,15.8
2023-03-26T12:14:05.056Z,15.4
2023-03-26T12:16:08.812Z,15.6
2023-03-26T12:18:21.533Z,16.8
2023-03-26T12:20:22.112Z,15.4
2023-03-26T12:22:02.530Z,15.7
2023-03-26T12:24:04.775Z,17.2
2023-03-26T12:26:14.239Z,16.2
2023-03-26T12:28:08.710Z,15.1
2023-03-26T12:30:12.459Z,16.7
2023-03-26T12:32:06.859Z,14.7
2023-03-26T12:34:07.038Z,14.6
2023-03-26T12:36:18.356Z,15.5
2023-03-26T12:38:15.646Z,16.6
2023-03-26T12:40:16.082Z,15.9
2023-03-26T12:43:40.262Z,15.9
2023-03-26T12:44:53.292Z,16.3
2023-03-26T12:47:54.250Z,16.3
2023-03-26T12:48:04.552Z,15.0
2023-03-26T12:50:03.385Z,14.6
2023-03-26T12:52:10.566Z,16.6
2023-03-26T12:54:16.018Z,14.6
2023-03-26T12:56:16.925Z,15.3
2023-03-26T12:58:15.052Z,15.3
2023-03-26T13:00:20.972Z,16.9
2023-03-26T13:02:18.739Z,16.9
2023-03-26T13:04:19.663Z,15.1
2023-03-26T13:06:13.713Z,18.4
2023-03-26T13:08:21.619Z,17.6
2023-03-26T13:10:21.804Z,21.1
2023-03-26T13:12:10.147Z,16.0
2023-03-26T13:14:17.982Z,15.9
2023-03-26T13:16:09.394Z,15.7
2023-03-26T13:18:15.156Z,15.6
2023-03-26T13:20:11.275Z,15.1
2023-03-26T13:22:17.210Z,16.0
2023-03-26T13:24:09.991Z,16.2
2023-03-26T13:26:10.630Z,20.7
2023-03-26T13:28:15.384Z,15.6
2023-03-26T13:30:15.285Z,16.0
2023-03-26T13:32:14.348Z,17.2
2023-03-26T13:34:15.566Z,15.9
2023-03-26T13:36:22.357Z,14.9
2023-03-26T13:38:10.240Z,14.6
2023-03-26T13:40:21.713Z,14.2
2023-03-26T13:42:15.711Z,15.1
2023-03-26T13:44:15.783Z,15.1
2023-03-26T13:46:11.208Z,14.8
2023-03-26T13:48:08.654Z,14.8
2023-03-26T13:50:15.190Z,15.2
2023-03-26T13:52:07.125Z,14.8
2023-03-26T13:54:10.699Z,14.4
2023-03-26T13:56:03.049Z,16.3
2023-03-26T13:58:06.310Z,14.9
2023-03-26T14:00:12.081Z,15.2
2023-03-26T14:02:10.471Z,16.6
2023-03-26T14:04:08.082Z,16.4
2023-03-26T14:06:07.775Z,14.9
2023-03-26T14:08:05.985Z,16.3
2023-03-26T14:10:08.330Z,17.5
2023-03-26T14:12:22.030Z,14.0
2023-03-26T14:14:08.189Z,17.7
2023-03-26T14:16:09.944Z,14.7
2023-03-26T14:18:11.994Z,14.4
2023-03-26T14:20:21.510Z,14.3
2023-03-26T14:22:17.631Z,16.2
2023-03-26T14:24:14.266Z,15.1
2023-03-26T14:26:14.918Z,16.1
2023-03-26T14:28:15.078Z,15.7
2023-03-26T14:30:21.519Z,18.2
2023-03-26T14:32:16.526Z,16.2
2023-03-26T14:34:19.401Z,15.6
2023-03-26T14:36:10.999Z,15.8
2023-03-26T14:38:20.034Z,14.8
2023-03-26T14:40:21.178Z,15.8
2023-03-26T14:42:12.668Z,14.1
2023-03-26T14:44:21.682Z,14.1
2023-03-26T14:46:19.448Z,16.9
2023-03-26T14:48:21.581Z,18.1
2023-03-26T14:50:21.697Z,17.0
2023-03-26T14:52:08.273Z,15.3
2023-03-26T14:54:11.473Z,16.2
2023-03-26T14:56:21.532Z,15.6
2023-03-26T14:58:21.482Z,14.6
2023-03-26T15:00:21.787Z,13.5
2023-03-26T15:02:21.693Z,14.9
2023-03-26T15:04:21.494Z,14.2
2023-03-26T15:06:22.562Z,13.5
2023-03-26T15:08:21.670Z,17.8
2023-03-26T15:10:22.177Z,17.0
2023-03-26T15:12:15.077Z,17.5
2023-03-26T15:14:21.529Z,15.6
2023-03-26T15:16:18.648Z,16.0
2023-03-26T15:18:21.602Z,13.6
2023-03-26T15:20:25.422Z,14.7
2023-03-26T15:22:21.463Z,14.3
2023-03-26T15:24:21.568Z,13.2
2023-03-26T15:26:21.481Z,14.9
2023-03-26T15:28:21.693Z,11.5
2023-03-26T15:30:21.756Z,13.8
2023-03-26T15:32:25.212Z,11.1
2023-03-26T15:34:19.628Z,11.3
2023-03-26T15:36:21.562Z,9.7
2023-03-26T15:38:21.474Z,12.4
2023-03-26T15:40:21.493Z,15.1
2023-03-26T15:42:09.765Z,13.5
2023-03-26T15:44:24.852Z,10.6
2023-03-26T15:46:21.505Z,11.9
2023-03-26T15:48:21.249Z,12.8
2023-03-26T15:50:15.782Z,12.3
2023-03-26T15:52:16.933Z,15.4
2023-03-26T15:54:09.015Z,11.4
2023-03-26T15:56:20.421Z,9.8
2023-03-26T15:58:12.501Z,10.3
2023-03-26T16:00:19.211Z,10.5
2023-03-26T16:02:15.563Z,11.6
2023-03-26T16:04:26.113Z,13.7
2023-03-26T16:06:21.850Z,16.5
2023-03-26T16:08:15.524Z,15.2
2023-03-26T16:10:17.991Z,12.4
2023-03-26T16:12:21.489Z,16.4
2023-03-26T16:14:16.790Z,12.6
2023-03-26T16:16:22.180Z,17.0
2023-03-26T16:18:22.165Z,17.7
2023-03-26T16:20:19.945Z,15.1
2023-03-26T16:22:06.947Z,14.4
2023-03-26T16:24:21.628Z,14.9
2023-03-26T16:26:15.996Z,11.7
2023-03-26T16:28:22.106Z,12.2
2023-03-26T16:30:15.314Z,10.3
2023-03-26T16:32:15.850Z,11.3
2023-03-26T16:34:21.738Z,13.1
2023-03-26T16:36:06.054Z,8.6
2023-03-26T16:38:10.288Z,12.6
2023-03-26T16:40:21.964Z,10.0
2023-03-26T16:42:15.837Z,8.3
2023-03-26T16:44:13.211Z,8.7
2023-03-26T16:46:10.010Z,7.6
2023-03-26T16:48:16.024Z,11.1
2023-03-26T16:50:16.146Z,12.5
2023-03-26T16:52:14.264Z,12.0
2023-03-26T16:54:16.953Z,16.6
2023-03-26T16:56:12.000Z,16.4
2023-03-26T16:58:11.706Z,14.9
2023-03-26T17:00:23.777Z,17.6
2023-03-26T17:02:20.305Z,15.7
2023-03-26T17:04:09.380Z,15.7
2023-03-26T17:06:06.968Z,12.4
2023-03-26T17:08:07.915Z,11.9
2023-03-26T17:10:09.721Z,8.9
2023-03-26T17:12:13.952Z,11.2
2023-03-26T17:14:21.884Z,10.4
2023-03-26T17:16:12.475Z,10.4
2023-03-26T17:18:21.544Z,9.2
2023-03-26T17:20:14.504Z,9.2
2023-03-26T17:22:08.408Z,12.5
2023-03-26T17:24:15.258Z,7.6
2023-03-26T17:26:10.338Z,9.7
2023-03-26T17:28:17.909Z,8.7
2023-03-26T17:30:21.495Z,8.6
2023-03-26T17:32:08.717Z,8.9
2023-03-26T17:34:21.467Z,8.2
2023-03-26T17:36:21.802Z,6.6
2023-03-26T17:38:03.580Z,8.8
2023-03-26T17:40:21.474Z,12.7
2023-03-26T17:42:18.547Z,10.3
2023-03-26T17:44:21.479Z,9.1
2023-03-26T17:46:06.247Z,7.7
2023-03-26T17:48:08.814Z,9.8
2023-03-26T17:50:12.369Z,9.9
2023-03-26T17:52:05.663Z,9.1
2023-03-26T17:54:06.227Z,7.8
2023-03-26T17:56:05.919Z,9.0
2023-03-26T17:58:05.078Z,10.9
2023-03-26T18:00:07.202Z,10.7
2023-03-26T18:02:06.340Z,6.8
2023-03-26T18:04:05.731Z,6.8
2023-03-26T18:06:07.548Z,7.6
2023-03-26T18:08:21.510Z,8.7
2023-03-26T18:10:17.771Z,7.7
2023-03-26T18:12:21.494Z,10.5
2023-03-26T18:14:21.518Z,8.9
2023-03-26T18:16:12.577Z,6.4
2023-03-26T18:18:12.263Z,6.4
2023-03-26T18:20:06.004Z,7.3
2023-03-26T18:22:06.768Z,7.7
2023-03-26T18:24:05.222Z,8.6
2023-03-26T18:26:12.366Z,10.3
2023-03-26T18:28:02.772Z,8.1
2023-03-26T18:30:14.264Z,7.0
2023-03-26T18:32:21.637Z,8.0
2023-03-26T18:34:11.734Z,7.1
2023-03-26T18:36:03.257Z,6.1
2023-03-26T18:38:03.148Z,9.1
2023-03-26T18:40:11.403Z,10.6
2023-03-26T18:42:02.489Z,9.3
2023-03-26T18:44:05.304Z,6.1
2023-03-26T18:46:04.484Z,6.1
2023-03-26T18:48:06.953Z,6.7
2023-03-26T18:50:03.153Z,6.7
2023-03-26T18:52:02.763Z,7.2
2023-03-26T18:54:06.682Z,8.4
2023-03-26T18:56:12.246Z,7.9
2023-03-26T18:58:19.917Z,8.4
2023-03-26T19:00:17.990Z,6.3
2023-03-26T19:02:04.998Z,7.8
2023-03-26T19:04:05.719Z,8.0
2023-03-26T19:06:07.753Z,6.2
2023-03-26T19:08:05.782Z,8.0
2023-03-26T19:10:03.490Z,9.3
2023-03-26T19:12:07.161Z,6.9
2023-03-26T19:14:15.168Z,6.5
2023-03-26T19:16:07.746Z,7.4
2023-03-26T19:18:09.140Z,5.2
2023-03-26T19:20:06.911Z,6.6
2023-03-26T19:22:03.703Z,7.5
2023-03-26T19:24:04.290Z,6.9
2023-03-26T19:26:05.531Z,7.5
2023-03-26T19:28:03.401Z,9.9
2023-03-26T19:30:02.833Z,6.6
2023-03-26T19:32:04.947Z,7.1
2023-03-26T19:34:13.510Z,6.5
2023-03-26T19:36:05.934Z,7.1
2023-03-26T19:38:18.762Z,10.7
2023-03-26T19:40:13.563Z,5.6
2023-03-26T19:42:05.878Z,7.1
2023-03-26T19:44:06.508Z,7.4
2023-03-26T19:46:03.039Z,7.8
2023-03-26T19:48:15.098Z,6.7
2023-03-26T19:50:24.239Z,7.3
2023-03-26T19:52:07.875Z,6.4
2023-03-26T19:54:11.931Z,6.1
2023-03-26T19:56:14.525Z,7.1
2023-03-26T19:58:03.255Z,7.3
2023-03-26T20:00:04.734Z,11.3
2023-03-26T20:02:02.908Z,6.9
2023-03-26T20:04:05.925Z,6.8
2023-03-26T20:06:02.707Z,6.8
2023-03-26T20:08:12.895Z,7.1
2023-03-26T20:10:04.752Z,7.1
2023-03-26T20:12:02.670Z,5.8
2023-03-26T20:14:12.554Z,8.8
2023-03-26T20:16:08.008Z,7.7
2023-03-26T20:18:03.547Z,6.8
2023-03-26T20:20:05.117Z,7.1
2023-03-26T20:22:02.516Z,5.2
2023-03-26T20:24:10.560Z,7.9
2023-03-26T20:26:03.498Z,9.3
2023-03-26T20:28:02.443Z,5.9
2023-03-26T20:30:05.196Z,5.3
2023-03-26T20:32:05.795Z,6.3
2023-03-26T20:34:02.432Z,6.5
2023-03-26T20:36:03.404Z,6.3
2023-03-26T20:38:02.856Z,8.2
2023-03-26T20:40:03.890Z,7.7
2023-03-26T20:42:02.560Z,8.4
2023-03-26T20:44:04.363Z,8.1
2023-03-26T20:46:03.429Z,5.5
2023-03-26T20:48:02.812Z,6.0
2023-03-26T20:50:03.090Z,8.5
2023-03-26T20:52:03.477Z,5.5
2023-03-26T20:54:03.153Z,6.4
2023-03-26T20:56:03.058Z,6.6
2023-03-26T20:58:04.081Z,4.8
2023-03-26T21:00:08.520Z,7.1
2023-03-26T21:02:03.445Z,6.3
2023-03-26T21:04:03.681Z,7.0
2023-03-26T21:06:05.832Z,4.8
2023-03-26T21:08:02.714Z,4.8
2023-03-26T21:10:02.959Z,5.2
2023-03-26T21:12:07.355Z,6.4
2023-03-26T21:14:09.492Z,6.2
2023-03-26T21:16:02.770Z,6.2
2023-03-26T21:18:03.294Z,5.9
2023-03-26T21:20:11.366Z,6.1
2023-03-26T21:22:18.982Z,8.7
2023-03-26T21:24:09.979Z,8.7
2023-03-26T21:26:11.836Z,6.4
2023-03-26T21:28:16.593Z,5.9
2023-03-26T21:30:03.129Z,5.9
2023-03-26T21:32:02.736Z,5.1
2023-03-26T21:34:04.744Z,8.1
2023-03-26T21:36:03.838Z,4.5
2023-03-26T21:38:05.741Z,6.1
2023-03-26T21:40:12.283Z,5.8
2023-03-26T21:42:04.971Z,7.6
2023-03-26T21:44:02.836Z,4.8
2023-03-26T21:46:03.976Z,6.6
2023-03-26T21:48:03.674Z,6.3
2023-03-26T21:50:03.113Z,5.5
2023-03-26T21:52:02.976Z,5.7
2023-03-26T21:54:03.182Z,5.0
2023-03-26T21:56:13.330Z,6.9
2023-03-26T21:58:20.594Z,5.7
2023-03-26T22:00:14.085Z,6.9
2023-03-26T22:02:07.445Z,5.4
2023-03-26T22:04:13.531Z,5.4
2023-03-26T22:06:10.812Z,8.2
2023-03-26T22:08:04.772Z,5.9
2023-03-26T22:10:02.657Z,7.4
2023-03-26T22:12:03.421Z,6.7
2023-03-26T22:14:02.668Z,5.5
2023-03-26T22:16:02.552Z,6.2
2023-03-26T22:18:06.600Z,7.9
2023-03-26T22:20:04.518Z,7.1
2023-03-26T22:22:03.638Z,6.8
2023-03-26T22:24:03.632Z,6.8
2023-03-26T22:26:03.668Z,5.9
2023-03-26T22:28:03.859Z,6.2
2023-03-26T22:30:03.367Z,5.3
2023-03-26T22:32:03.291Z,5.8
2023-03-26T22:34:02.675Z,5.9
2023-03-26T22:36:03.198Z,6.5
2023-03-26T22:38:02.499Z,5.4
2023-03-26T22:40:04.095Z,6.7
2023-03-26T22:42:03.243Z,7.4
2023-03-26T22:44:18.573Z,6.6
2023-03-26T22:46:02.723Z,4.7
2023-03-26T22:48:04.593Z,6.3
2023-03-26T22:50:03.089Z,4.9
2023-03-26T22:52:02.493Z,7.4
2023-03-26T22:54:03.393Z,5.4
2023-03-26T22:56:03.616Z,5.4
2023-03-26T22:58:02.856Z,4.9
2023-03-26T23:00:12.059Z,5.7
2023-03-26T23:02:02.736Z,4.2
2023-03-26T23:04:02.452Z,5.8
2023-03-26T23:06:05.755Z,6.5
2023-03-26T23:08:02.506Z,6.9
2023-03-26T23:10:03.593Z,5.1
2023-03-26T23:12:03.051Z,7.2
2023-03-26T23:14:02.671Z,8.5
2023-03-26T23:16:04.003Z,5.2
2023-03-26T23:18:02.831Z,5.2
2023-03-26T23:20:05.544Z,7.2
2023-03-26T23:22:02.619Z,5.7
2023-03-26T23:24:04.037Z,6.2
2023-03-26T23:26:06.198Z,6.0
2023-03-26T23:28:03.078Z,7.2
2023-03-26T23:30:03.830Z,9.3
2023-03-26T23:32:02.530Z,5.5
2023-03-26T23:34:03.312Z,7.3
2023-03-26T23:36:08.251Z,7.2
2023-03-26T23:38:02.503Z,4.9
2023-03-26T23:40:08.780Z,4.2
2023-03-26T23:42:03.181Z,4.9
2023-03-26T23:44:03.025Z,4.7
2023-03-26T23:46:04.748Z,4.6
2023-03-26T23:48:03.142Z,6.6
2023-03-26T23:50:05.864Z,4.0
2023-03-26T23:52:03.710Z,4.9
2023-03-26T23:54:04.737Z,6.1
2023-03-26T23:56:03.147Z,4.7
2023-03-26T23:58:03.846Z,5.1
